sensor_id;sensor_type;location;lat;lon;timestamp;P1;durP1;ratioP1;P2;durP2;ratioP2
32734;SDS011;19112;51.076;3.706;2024-01-30T00:02:16;20.77;;;7.93;;
32734;SDS011;19112;51.076;3.706;2024-01-30T00:04:42;22.15;;;7.90;;
32734;SDS011;19112;51.076;3.706;2024-01-30T00:07:09;22.60;;;7.68;;
32734;SDS011;19112;51.076;3.706;2024-01-30T00:09:37;22.25;;;8.50;;
32734;SDS011;19112;51.076;3.706;2024-01-30T00:12:05;18.27;;;7.78;;
32734;SDS011;19112;51.076;3.706;2024-01-30T00:14:31;18.73;;;7.40;;
32734;SDS011;19112;51.076;3.706;2024-01-30T00:16:57;20.80;;;8.40;;
32734;SDS011;19112;51.076;3.706;2024-01-30T00:19:23;21.63;;;7.72;;
32734;SDS011;19112;51.076;3.706;2024-01-30T00:21:49;18.40;;;7.72;;
32734;SDS011;19112;51.076;3.706;2024-01-30T00:24:15;21.45;;;7.55;;
32734;SDS011;19112;51.076;3.706;2024-01-30T00:26:41;20.35;;;7.90;;
32734;SDS011;19112;51.076;3.706;2024-01-30T00:29:08;21.05;;;8.65;;
32734;SDS011;19112;51.076;3.706;2024-01-30T00:31:34;22.02;;;8.73;;
32734;SDS011;19112;51.076;3.706;2024-01-30T00:34:00;21.15;;;8.15;;
32734;SDS011;19112;51.076;3.706;2024-01-30T00:36:27;24.33;;;8.75;;
32734;SDS011;19112;51.076;3.706;2024-01-30T00:38:55;20.38;;;8.25;;
32734;SDS011;19112;51.076;3.706;2024-01-30T00:43:50;23.33;;;8.40;;
32734;SDS011;19112;51.076;3.706;2024-01-30T00:46:16;17.98;;;7.40;;
32734;SDS011;19112;51.076;3.706;2024-01-30T00:48:41;21.70;;;8.00;;
32734;SDS011;19112;51.076;3.706;2024-01-30T00:51:07;22.02;;;8.07;;
32734;SDS011;19112;51.076;3.706;2024-01-30T00:53:33;19.85;;;7.30;;
32734;SDS011;19112;51.076;3.706;2024-01-30T00:55:59;23.50;;;7.97;;
32734;SDS011;19112;51.076;3.706;2024-01-30T00:58:26;18.75;;;7.50;;
32734;SDS011;19112;51.076;3.706;2024-01-30T01:00:52;19.60;;;7.95;;
32734;SDS011;19112;51.076;3.706;2024-01-30T01:03:18;18.13;;;7.40;;
32734;SDS011;19112;51.076;3.706;2024-01-30T01:05:44;20.92;;;7.93;;
32734;SDS011;19112;51.076;3.706;2024-01-30T01:08:10;18.65;;;7.90;;
32734;SDS011;19112;51.076;3.706;2024-01-30T01:10:37;21.55;;;8.23;;
32734;SDS011;19112;51.076;3.706;2024-01-30T01:13:03;21.10;;;7.78;;
32734;SDS011;19112;51.076;3.706;2024-01-30T01:15:30;18.67;;;7.35;;
32734;SDS011;19112;51.076;3.706;2024-01-30T01:17:57;19.52;;;7.72;;
32734;SDS011;19112;51.076;3.706;2024-01-30T01:20:23;19.95;;;7.32;;
32734;SDS011;19112;51.076;3.706;2024-01-30T01:22:49;20.73;;;7.88;;
32734;SDS011;19112;51.076;3.706;2024-01-30T01:25:15;19.35;;;7.80;;
32734;SDS011;19112;51.076;3.706;2024-01-30T01:27:41;19.25;;;7.57;;
32734;SDS011;19112;51.076;3.706;2024-01-30T01:32:48;20.15;;;7.50;;
32734;SDS011;19112;51.076;3.706;2024-01-30T01:35:27;19.02;;;7.45;;
32734;SDS011;19112;51.076;3.706;2024-01-30T01:37:53;20.55;;;8.07;;
32734;SDS011;19112;51.076;3.706;2024-01-30T01:40:25;19.13;;;7.77;;
32734;SDS011;19112;51.076;3.706;2024-01-30T01:42:53;23.88;;;8.20;;
32734;SDS011;19112;51.076;3.706;2024-01-30T01:45:21;19.20;;;7.32;;
32734;SDS011;19112;51.076;3.706;2024-01-30T01:47:47;22.42;;;8.93;;
32734;SDS011;19112;51.076;3.706;2024-01-30T01:50:17;18.77;;;7.85;;
32734;SDS011;19112;51.076;3.706;2024-01-30T01:52:48;18.85;;;7.57;;
32734;SDS011;19112;51.076;3.706;2024-01-30T01:55:15;19.98;;;7.85;;
32734;SDS011;19112;51.076;3.706;2024-01-30T01:57:46;20.23;;;7.50;;
32734;SDS011;19112;51.076;3.706;2024-01-30T02:00:12;19.15;;;7.75;;
32734;SDS011;19112;51.076;3.706;2024-01-30T02:02:40;19.30;;;7.38;;
32734;SDS011;19112;51.076;3.706;2024-01-30T02:05:09;18.90;;;7.53;;
32734;SDS011;19112;51.076;3.706;2024-01-30T02:07:36;20.77;;;8.07;;
32734;SDS011;19112;51.076;3.706;2024-01-30T02:10:02;20.02;;;8.23;;
32734;SDS011;19112;51.076;3.706;2024-01-30T02:12:31;19.05;;;8.02;;
32734;SDS011;19112;51.076;3.706;2024-01-30T02:14:57;22.52;;;8.27;;
32734;SDS011;19112;51.076;3.706;2024-01-30T02:17:23;19.15;;;7.60;;
32734;SDS011;19112;51.076;3.706;2024-01-30T02:19:49;17.73;;;7.55;;
32734;SDS011;19112;51.076;3.706;2024-01-30T02:22:15;19.30;;;8.30;;
32734;SDS011;19112;51.076;3.706;2024-01-30T02:24:41;22.23;;;7.63;;
32734;SDS011;19112;51.076;3.706;2024-01-30T02:27:07;20.73;;;8.45;;
32734;SDS011;19112;51.076;3.706;2024-01-30T02:29:33;21.00;;;7.93;;
32734;SDS011;19112;51.076;3.706;2024-01-30T02:31:58;17.67;;;7.35;;
32734;SDS011;19112;51.076;3.706;2024-01-30T02:34:24;21.63;;;9.95;;
32734;SDS011;19112;51.076;3.706;2024-01-30T02:36:50;21.38;;;7.70;;
32734;SDS011;19112;51.076;3.706;2024-01-30T02:39:17;23.30;;;7.68;;
32734;SDS011;19112;51.076;3.706;2024-01-30T02:41:44;18.73;;;7.85;;
32734;SDS011;19112;51.076;3.706;2024-01-30T02:44:10;20.60;;;8.40;;
32734;SDS011;19112;51.076;3.706;2024-01-30T02:46:35;21.48;;;8.38;;
32734;SDS011;19112;51.076;3.706;2024-01-30T02:49:01;19.55;;;8.85;;
32734;SDS011;19112;51.076;3.706;2024-01-30T02:51:29;20.13;;;7.53;;
32734;SDS011;19112;51.076;3.706;2024-01-30T02:53:54;18.00;;;7.35;;
32734;SDS011;19112;51.076;3.706;2024-01-30T02:56:21;19.70;;;8.00;;
32734;SDS011;19112;51.076;3.706;2024-01-30T02:58:47;20.33;;;7.45;;
32734;SDS011;19112;51.076;3.706;2024-01-30T03:01:13;24.60;;;10.15;;
32734;SDS011;19112;51.076;3.706;2024-01-30T03:03:39;21.25;;;8.38;;
32734;SDS011;19112;51.076;3.706;2024-01-30T03:06:05;18.45;;;8.52;;
32734;SDS011;19112;51.076;3.706;2024-01-30T03:08:32;23.13;;;7.80;;
32734;SDS011;19112;51.076;3.706;2024-01-30T03:10:59;19.55;;;7.97;;
32734;SDS011;19112;51.076;3.706;2024-01-30T03:13:25;18.80;;;8.38;;
32734;SDS011;19112;51.076;3.706;2024-01-30T03:15:51;19.35;;;7.78;;
32734;SDS011;19112;51.076;3.706;2024-01-30T03:18:17;19.17;;;8.20;;
32734;SDS011;19112;51.076;3.706;2024-01-30T03:20:43;20.63;;;7.80;;
32734;SDS011;19112;51.076;3.706;2024-01-30T03:23:09;20.08;;;8.32;;
32734;SDS011;19112;51.076;3.706;2024-01-30T03:25:35;17.88;;;7.57;;
32734;SDS011;19112;51.076;3.706;2024-01-30T03:28:01;19.52;;;8.13;;
32734;SDS011;19112;51.076;3.706;2024-01-30T03:30:27;18.55;;;8.00;;
32734;SDS011;19112;51.076;3.706;2024-01-30T03:32:54;18.92;;;7.97;;
32734;SDS011;19112;51.076;3.706;2024-01-30T03:35:19;18.95;;;7.70;;
32734;SDS011;19112;51.076;3.706;2024-01-30T03:37:45;19.23;;;8.10;;
32734;SDS011;19112;51.076;3.706;2024-01-30T03:40:11;22.25;;;8.77;;
32734;SDS011;19112;51.076;3.706;2024-01-30T03:42:37;21.00;;;8.70;;
32734;SDS011;19112;51.076;3.706;2024-01-30T03:45:03;22.00;;;8.32;;
32734;SDS011;19112;51.076;3.706;2024-01-30T03:47:30;19.88;;;8.18;;
32734;SDS011;19112;51.076;3.706;2024-01-30T03:49:56;22.13;;;8.77;;
32734;SDS011;19112;51.076;3.706;2024-01-30T03:52:22;20.90;;;8.90;;
32734;SDS011;19112;51.076;3.706;2024-01-30T03:54:48;20.15;;;8.60;;
32734;SDS011;19112;51.076;3.706;2024-01-30T03:57:14;20.20;;;7.85;;
32734;SDS011;19112;51.076;3.706;2024-01-30T03:59:43;21.23;;;8.65;;
32734;SDS011;19112;51.076;3.706;2024-01-30T04:02:10;23.48;;;10.27;;
32734;SDS011;19112;51.076;3.706;2024-01-30T04:04:37;23.90;;;8.30;;
32734;SDS011;19112;51.076;3.706;2024-01-30T04:07:02;21.55;;;8.90;;
32734;SDS011;19112;51.076;3.706;2024-01-30T04:09:28;20.65;;;8.20;;
32734;SDS011;19112;51.076;3.706;2024-01-30T04:11:54;21.65;;;8.65;;
32734;SDS011;19112;51.076;3.706;2024-01-30T04:14:20;24.40;;;8.20;;
32734;SDS011;19112;51.076;3.706;2024-01-30T04:16:46;23.45;;;9.00;;
32734;SDS011;19112;51.076;3.706;2024-01-30T04:19:12;18.73;;;8.70;;
32734;SDS011;19112;51.076;3.706;2024-01-30T04:21:38;22.38;;;8.27;;
32734;SDS011;19112;51.076;3.706;2024-01-30T04:24:04;24.02;;;8.55;;
32734;SDS011;19112;51.076;3.706;2024-01-30T04:26:30;24.08;;;8.43;;
32734;SDS011;19112;51.076;3.706;2024-01-30T04:28:56;24.70;;;9.80;;
32734;SDS011;19112;51.076;3.706;2024-01-30T04:31:22;19.35;;;8.73;;
32734;SDS011;19112;51.076;3.706;2024-01-30T04:33:47;19.25;;;8.65;;
32734;SDS011;19112;51.076;3.706;2024-01-30T04:36:13;20.77;;;8.55;;
32734;SDS011;19112;51.076;3.706;2024-01-30T04:38:39;25.02;;;9.55;;
32734;SDS011;19112;51.076;3.706;2024-01-30T04:41:05;20.33;;;9.55;;
32734;SDS011;19112;51.076;3.706;2024-01-30T04:43:31;23.80;;;9.05;;
32734;SDS011;19112;51.076;3.706;2024-01-30T04:46:00;20.40;;;8.52;;
32734;SDS011;19112;51.076;3.706;2024-01-30T04:48:26;21.05;;;8.00;;
32734;SDS011;19112;51.076;3.706;2024-01-30T04:50:52;20.27;;;8.23;;
32734;SDS011;19112;51.076;3.706;2024-01-30T04:53:18;22.10;;;8.88;;
32734;SDS011;19112;51.076;3.706;2024-01-30T04:55:44;20.25;;;8.90;;
32734;SDS011;19112;51.076;3.706;2024-01-30T04:58:10;21.27;;;8.88;;
32734;SDS011;19112;51.076;3.706;2024-01-30T05:00:36;19.88;;;7.57;;
32734;SDS011;19112;51.076;3.706;2024-01-30T05:03:01;21.55;;;8.48;;
32734;SDS011;19112;51.076;3.706;2024-01-30T05:05:27;24.85;;;8.63;;
32734;SDS011;19112;51.076;3.706;2024-01-30T05:07:53;21.67;;;8.48;;
32734;SDS011;19112;51.076;3.706;2024-01-30T05:10:19;21.38;;;8.43;;
32734;SDS011;19112;51.076;3.706;2024-01-30T05:12:45;22.58;;;8.57;;
32734;SDS011;19112;51.076;3.706;2024-01-30T05:15:13;24.02;;;9.13;;
32734;SDS011;19112;51.076;3.706;2024-01-30T05:17:39;19.10;;;7.97;;
32734;SDS011;19112;51.076;3.706;2024-01-30T05:20:05;21.13;;;8.10;;
32734;SDS011;19112;51.076;3.706;2024-01-30T05:22:32;22.92;;;8.80;;
32734;SDS011;19112;51.076;3.706;2024-01-30T05:24:58;21.08;;;8.70;;
32734;SDS011;19112;51.076;3.706;2024-01-30T05:27:24;21.75;;;9.18;;
32734;SDS011;19112;51.076;3.706;2024-01-30T05:29:50;22.80;;;9.00;;
32734;SDS011;19112;51.076;3.706;2024-01-30T05:32:16;26.42;;;8.60;;
32734;SDS011;19112;51.076;3.706;2024-01-30T05:34:44;23.17;;;8.10;;
32734;SDS011;19112;51.076;3.706;2024-01-30T05:37:11;22.85;;;8.35;;
32734;SDS011;19112;51.076;3.706;2024-01-30T05:39:42;24.95;;;8.63;;
32734;SDS011;19112;51.076;3.706;2024-01-30T05:42:07;21.92;;;8.38;;
32734;SDS011;19112;51.076;3.706;2024-01-30T05:44:34;22.92;;;8.43;;
32734;SDS011;19112;51.076;3.706;2024-01-30T05:47:01;23.10;;;9.88;;
32734;SDS011;19112;51.076;3.706;2024-01-30T05:49:29;19.83;;;8.10;;
32734;SDS011;19112;51.076;3.706;2024-01-30T05:51:56;22.83;;;8.77;;
32734;SDS011;19112;51.076;3.706;2024-01-30T05:54:22;23.25;;;8.80;;
32734;SDS011;19112;51.076;3.706;2024-01-30T05:56:47;24.92;;;8.20;;
32734;SDS011;19112;51.076;3.706;2024-01-30T05:59:13;22.23;;;8.43;;
32734;SDS011;19112;51.076;3.706;2024-01-30T06:01:45;21.30;;;8.30;;
32734;SDS011;19112;51.076;3.706;2024-01-30T06:04:12;19.23;;;8.20;;
32734;SDS011;19112;51.076;3.706;2024-01-30T06:06:38;21.80;;;8.95;;
32734;SDS011;19112;51.076;3.706;2024-01-30T06:09:05;21.98;;;8.55;;
32734;SDS011;19112;51.076;3.706;2024-01-30T06:11:31;24.13;;;8.73;;
32734;SDS011;19112;51.076;3.706;2024-01-30T06:13:57;21.33;;;8.73;;
32734;SDS011;19112;51.076;3.706;2024-01-30T06:16:24;22.05;;;8.57;;
32734;SDS011;19112;51.076;3.706;2024-01-30T06:18:54;21.27;;;8.50;;
32734;SDS011;19112;51.076;3.706;2024-01-30T06:21:23;23.10;;;9.10;;
32734;SDS011;19112;51.076;3.706;2024-01-30T06:23:50;23.90;;;8.85;;
32734;SDS011;19112;51.076;3.706;2024-01-30T06:26:17;22.23;;;8.95;;
32734;SDS011;19112;51.076;3.706;2024-01-30T06:28:42;20.92;;;8.75;;
32734;SDS011;19112;51.076;3.706;2024-01-30T06:31:09;21.02;;;8.32;;
32734;SDS011;19112;51.076;3.706;2024-01-30T06:33:35;23.10;;;9.32;;
32734;SDS011;19112;51.076;3.706;2024-01-30T06:36:02;21.90;;;8.88;;
32734;SDS011;19112;51.076;3.706;2024-01-30T06:38:29;19.30;;;8.23;;
32734;SDS011;19112;51.076;3.706;2024-01-30T06:40:55;20.77;;;8.77;;
32734;SDS011;19112;51.076;3.706;2024-01-30T06:43:21;21.80;;;9.40;;
32734;SDS011;19112;51.076;3.706;2024-01-30T06:45:47;22.13;;;8.88;;
32734;SDS011;19112;51.076;3.706;2024-01-30T06:48:13;19.95;;;8.45;;
32734;SDS011;19112;51.076;3.706;2024-01-30T06:50:39;20.17;;;8.43;;
32734;SDS011;19112;51.076;3.706;2024-01-30T06:53:05;23.52;;;8.70;;
32734;SDS011;19112;51.076;3.706;2024-01-30T06:55:32;22.80;;;9.77;;
32734;SDS011;19112;51.076;3.706;2024-01-30T06:57:59;19.15;;;8.38;;
32734;SDS011;19112;51.076;3.706;2024-01-30T07:00:24;25.90;;;8.27;;
32734;SDS011;19112;51.076;3.706;2024-01-30T07:02:50;20.63;;;8.00;;
32734;SDS011;19112;51.076;3.706;2024-01-30T07:05:16;20.52;;;8.70;;
32734;SDS011;19112;51.076;3.706;2024-01-30T07:07:42;24.35;;;8.77;;
32734;SDS011;19112;51.076;3.706;2024-01-30T07:10:09;19.73;;;8.25;;
32734;SDS011;19112;51.076;3.706;2024-01-30T07:12:35;19.77;;;8.30;;
32734;SDS011;19112;51.076;3.706;2024-01-30T07:15:01;21.73;;;8.23;;
32734;SDS011;19112;51.076;3.706;2024-01-30T07:17:29;20.88;;;7.90;;
32734;SDS011;19112;51.076;3.706;2024-01-30T07:19:54;22.02;;;10.45;;
32734;SDS011;19112;51.076;3.706;2024-01-30T07:22:20;20.83;;;8.27;;
32734;SDS011;19112;51.076;3.706;2024-01-30T07:24:46;23.63;;;8.85;;
32734;SDS011;19112;51.076;3.706;2024-01-30T07:27:14;20.98;;;8.52;;
32734;SDS011;19112;51.076;3.706;2024-01-30T07:29:42;25.77;;;8.55;;
32734;SDS011;19112;51.076;3.706;2024-01-30T07:32:09;22.98;;;7.95;;
32734;SDS011;19112;51.076;3.706;2024-01-30T07:34:35;22.38;;;7.75;;
32734;SDS011;19112;51.076;3.706;2024-01-30T07:37:01;26.42;;;9.23;;
32734;SDS011;19112;51.076;3.706;2024-01-30T07:39:28;24.73;;;9.73;;
32734;SDS011;19112;51.076;3.706;2024-01-30T07:41:54;20.20;;;8.45;;
32734;SDS011;19112;51.076;3.706;2024-01-30T07:44:20;26.05;;;8.70;;
32734;SDS011;19112;51.076;3.706;2024-01-30T07:46:48;27.20;;;8.43;;
32734;SDS011;19112;51.076;3.706;2024-01-30T07:49:14;22.67;;;8.52;;
32734;SDS011;19112;51.076;3.706;2024-01-30T07:51:40;20.08;;;7.68;;
32734;SDS011;19112;51.076;3.706;2024-01-30T07:54:05;20.83;;;8.20;;
32734;SDS011;19112;51.076;3.706;2024-01-30T07:56:31;21.00;;;7.90;;
32734;SDS011;19112;51.076;3.706;2024-01-30T07:58:57;22.45;;;9.00;;
32734;SDS011;19112;51.076;3.706;2024-01-30T08:01:23;24.90;;;8.52;;
32734;SDS011;19112;51.076;3.706;2024-01-30T08:03:49;23.45;;;9.38;;
32734;SDS011;19112;51.076;3.706;2024-01-30T08:06:15;21.83;;;8.70;;
32734;SDS011;19112;51.076;3.706;2024-01-30T08:08:40;22.10;;;9.00;;
32734;SDS011;19112;51.076;3.706;2024-01-30T08:11:06;24.63;;;9.10;;
32734;SDS011;19112;51.076;3.706;2024-01-30T08:13:32;26.20;;;9.07;;
32734;SDS011;19112;51.076;3.706;2024-01-30T08:15:58;27.15;;;9.88;;
32734;SDS011;19112;51.076;3.706;2024-01-30T08:18:24;24.85;;;9.50;;
32734;SDS011;19112;51.076;3.706;2024-01-30T08:20:50;25.45;;;9.07;;
32734;SDS011;19112;51.076;3.706;2024-01-30T08:23:16;27.92;;;10.13;;
32734;SDS011;19112;51.076;3.706;2024-01-30T08:25:41;22.27;;;9.40;;
32734;SDS011;19112;51.076;3.706;2024-01-30T08:28:07;20.40;;;9.38;;
32734;SDS011;19112;51.076;3.706;2024-01-30T08:30:33;20.65;;;9.52;;
32734;SDS011;19112;51.076;3.706;2024-01-30T08:32:59;24.15;;;8.85;;
32734;SDS011;19112;51.076;3.706;2024-01-30T08:35:25;24.42;;;10.40;;
32734;SDS011;19112;51.076;3.706;2024-01-30T08:37:51;24.17;;;9.07;;
32734;SDS011;19112;51.076;3.706;2024-01-30T08:40:16;24.42;;;10.48;;
32734;SDS011;19112;51.076;3.706;2024-01-30T08:42:42;22.38;;;9.13;;
32734;SDS011;19112;51.076;3.706;2024-01-30T08:45:08;24.50;;;9.48;;
32734;SDS011;19112;51.076;3.706;2024-01-30T08:47:35;25.20;;;10.23;;
32734;SDS011;19112;51.076;3.706;2024-01-30T08:50:00;24.75;;;9.00;;
32734;SDS011;19112;51.076;3.706;2024-01-30T08:52:27;25.55;;;9.15;;
32734;SDS011;19112;51.076;3.706;2024-01-30T08:54:53;25.67;;;9.52;;
32734;SDS011;19112;51.076;3.706;2024-01-30T08:57:19;25.75;;;8.73;;
32734;SDS011;19112;51.076;3.706;2024-01-30T08:59:45;26.15;;;10.10;;
32734;SDS011;19112;51.076;3.706;2024-01-30T09:02:11;24.80;;;9.43;;
32734;SDS011;19112;51.076;3.706;2024-01-30T09:04:42;23.92;;;9.55;;
32734;SDS011;19112;51.076;3.706;2024-01-30T09:07:08;23.95;;;9.43;;
32734;SDS011;19112;51.076;3.706;2024-01-30T09:09:35;23.60;;;9.07;;
32734;SDS011;19112;51.076;3.706;2024-01-30T09:12:02;26.52;;;9.57;;
32734;SDS011;19112;51.076;3.706;2024-01-30T09:14:33;25.08;;;9.30;;
32734;SDS011;19112;51.076;3.706;2024-01-30T09:16:59;23.13;;;8.25;;
32734;SDS011;19112;51.076;3.706;2024-01-30T09:19:25;25.48;;;8.80;;
32734;SDS011;19112;51.076;3.706;2024-01-30T09:21:52;23.95;;;6.80;;
32734;SDS011;19112;51.076;3.706;2024-01-30T09:24:18;29.08;;;6.82;;
32734;SDS011;19112;51.076;3.706;2024-01-30T09:26:44;20.45;;;7.22;;
32734;SDS011;19112;51.076;3.706;2024-01-30T09:29:10;19.98;;;6.28;;
32734;SDS011;19112;51.076;3.706;2024-01-30T09:31:38;17.33;;;3.83;;
32734;SDS011;19112;51.076;3.706;2024-01-30T09:34:05;15.48;;;4.25;;
32734;SDS011;19112;51.076;3.706;2024-01-30T09:36:31;12.95;;;3.60;;
32734;SDS011;19112;51.076;3.706;2024-01-30T09:38:59;8.23;;;2.42;;
32734;SDS011;19112;51.076;3.706;2024-01-30T09:41:25;9.70;;;2.63;;
32734;SDS011;19112;51.076;3.706;2024-01-30T09:43:57;8.50;;;2.38;;
32734;SDS011;19112;51.076;3.706;2024-01-30T09:46:26;5.82;;;1.90;;
32734;SDS011;19112;51.076;3.706;2024-01-30T09:48:55;10.02;;;2.15;;
32734;SDS011;19112;51.076;3.706;2024-01-30T09:51:22;14.23;;;2.58;;
32734;SDS011;19112;51.076;3.706;2024-01-30T09:53:50;8.77;;;2.53;;
32734;SDS011;19112;51.076;3.706;2024-01-30T09:56:17;5.45;;;2.00;;
32734;SDS011;19112;51.076;3.706;2024-01-30T09:58:45;10.25;;;1.85;;
32734;SDS011;19112;51.076;3.706;2024-01-30T10:01:11;6.38;;;1.60;;
32734;SDS011;19112;51.076;3.706;2024-01-30T10:03:37;5.38;;;1.50;;
32734;SDS011;19112;51.076;3.706;2024-01-30T10:06:03;4.07;;;1.40;;
32734;SDS011;19112;51.076;3.706;2024-01-30T10:08:29;2.55;;;0.77;;
32734;SDS011;19112;51.076;3.706;2024-01-30T10:10:55;4.15;;;1.00;;
32734;SDS011;19112;51.076;3.706;2024-01-30T10:13:21;2.80;;;0.93;;
32734;SDS011;19112;51.076;3.706;2024-01-30T10:15:47;4.55;;;1.13;;
32734;SDS011;19112;51.076;3.706;2024-01-30T10:18:14;1.60;;;1.00;;
32734;SDS011;19112;51.076;3.706;2024-01-30T10:20:39;5.03;;;1.15;;
32734;SDS011;19112;51.076;3.706;2024-01-30T10:23:05;2.15;;;0.95;;
32734;SDS011;19112;51.076;3.706;2024-01-30T10:25:31;4.68;;;1.35;;
32734;SDS011;19112;51.076;3.706;2024-01-30T10:28:00;4.45;;;1.40;;
32734;SDS011;19112;51.076;3.706;2024-01-30T10:30:27;5.82;;;1.52;;
32734;SDS011;19112;51.076;3.706;2024-01-30T10:32:54;9.13;;;1.67;;
32734;SDS011;19112;51.076;3.706;2024-01-30T10:35:20;3.95;;;1.30;;
32734;SDS011;19112;51.076;3.706;2024-01-30T10:37:49;8.40;;;1.70;;
32734;SDS011;19112;51.076;3.706;2024-01-30T10:40:15;9.45;;;2.30;;
32734;SDS011;19112;51.076;3.706;2024-01-30T10:42:43;12.23;;;2.70;;
32734;SDS011;19112;51.076;3.706;2024-01-30T10:45:13;9.43;;;2.50;;
32734;SDS011;19112;51.076;3.706;2024-01-30T10:47:51;10.88;;;2.13;;
32734;SDS011;19112;51.076;3.706;2024-01-30T10:50:21;10.70;;;2.78;;
32734;SDS011;19112;51.076;3.706;2024-01-30T10:52:53;10.35;;;2.20;;
32734;SDS011;19112;51.076;3.706;2024-01-30T10:55:22;8.30;;;1.77;;
32734;SDS011;19112;51.076;3.706;2024-01-30T10:57:49;11.20;;;2.13;;
32734;SDS011;19112;51.076;3.706;2024-01-30T11:00:15;7.15;;;1.90;;
32734;SDS011;19112;51.076;3.706;2024-01-30T11:02:45;11.38;;;1.75;;
32734;SDS011;19112;51.076;3.706;2024-01-30T11:05:12;8.93;;;1.77;;
32734;SDS011;19112;51.076;3.706;2024-01-30T11:07:40;11.35;;;2.10;;
32734;SDS011;19112;51.076;3.706;2024-01-30T11:10:06;6.28;;;1.75;;
32734;SDS011;19112;51.076;3.706;2024-01-30T11:12:37;7.95;;;2.15;;
32734;SDS011;19112;51.076;3.706;2024-01-30T11:15:10;8.52;;;1.85;;
32734;SDS011;19112;51.076;3.706;2024-01-30T11:17:45;12.05;;;1.65;;
32734;SDS011;19112;51.076;3.706;2024-01-30T11:20:20;17.38;;;1.92;;
32734;SDS011;19112;51.076;3.706;2024-01-30T11:22:57;6.40;;;1.85;;
32734;SDS011;19112;51.076;3.706;2024-01-30T11:25:25;8.68;;;1.88;;
32734;SDS011;19112;51.076;3.706;2024-01-30T11:27:51;5.60;;;1.73;;
32734;SDS011;19112;51.076;3.706;2024-01-30T11:33:00;11.50;;;2.20;;
32734;SDS011;19112;51.076;3.706;2024-01-30T11:35:37;12.55;;;2.22;;
32734;SDS011;19112;51.076;3.706;2024-01-30T11:38:05;8.93;;;2.33;;
32734;SDS011;19112;51.076;3.706;2024-01-30T11:40:36;7.70;;;1.73;;
32734;SDS011;19112;51.076;3.706;2024-01-30T11:43:04;9.30;;;2.00;;
32734;SDS011;19112;51.076;3.706;2024-01-30T11:45:32;10.00;;;2.10;;
32734;SDS011;19112;51.076;3.706;2024-01-30T11:47:59;7.72;;;1.70;;
32734;SDS011;19112;51.076;3.706;2024-01-30T11:50:28;10.93;;;1.90;;
32734;SDS011;19112;51.076;3.706;2024-01-30T11:52:59;12.70;;;1.95;;
32734;SDS011;19112;51.076;3.706;2024-01-30T11:55:25;12.50;;;2.13;;
32734;SDS011;19112;51.076;3.706;2024-01-30T11:57:54;11.30;;;2.15;;
32734;SDS011;19112;51.076;3.706;2024-01-30T12:00:21;7.50;;;1.70;;
32734;SDS011;19112;51.076;3.706;2024-01-30T12:02:51;6.53;;;1.98;;
32734;SDS011;19112;51.076;3.706;2024-01-30T12:05:27;12.45;;;2.70;;
32734;SDS011;19112;51.076;3.706;2024-01-30T12:10:19;10.77;;;1.85;;
32734;SDS011;19112;51.076;3.706;2024-01-30T12:12:46;6.47;;;1.73;;
32734;SDS011;19112;51.076;3.706;2024-01-30T12:15:16;7.63;;;1.70;;
32734;SDS011;19112;51.076;3.706;2024-01-30T12:17:44;6.65;;;1.70;;
32734;SDS011;19112;51.076;3.706;2024-01-30T12:20:10;15.05;;;2.10;;
32734;SDS011;19112;51.076;3.706;2024-01-30T12:25:11;5.88;;;1.60;;
32734;SDS011;19112;51.076;3.706;2024-01-30T12:27:48;11.60;;;2.03;;
32734;SDS011;19112;51.076;3.706;2024-01-30T12:30:16;7.28;;;1.80;;
32734;SDS011;19112;51.076;3.706;2024-01-30T12:32:44;8.00;;;1.77;;
32734;SDS011;19112;51.076;3.706;2024-01-30T12:35:16;12.90;;;1.88;;
32734;SDS011;19112;51.076;3.706;2024-01-30T12:37:44;4.68;;;1.33;;
32734;SDS011;19112;51.076;3.706;2024-01-30T12:40:12;9.27;;;1.50;;
32734;SDS011;19112;51.076;3.706;2024-01-30T12:42:40;6.45;;;1.50;;
32734;SDS011;19112;51.076;3.706;2024-01-30T12:45:11;9.07;;;1.58;;
32734;SDS011;19112;51.076;3.706;2024-01-30T12:47:38;4.72;;;1.38;;
32734;SDS011;19112;51.076;3.706;2024-01-30T12:50:04;9.18;;;1.50;;
32734;SDS011;19112;51.076;3.706;2024-01-30T12:52:31;9.73;;;1.55;;
32734;SDS011;19112;51.076;3.706;2024-01-30T12:54:57;9.85;;;1.63;;
32734;SDS011;19112;51.076;3.706;2024-01-30T12:57:23;10.55;;;2.40;;
32734;SDS011;19112;51.076;3.706;2024-01-30T12:59:49;10.30;;;1.88;;
32734;SDS011;19112;51.076;3.706;2024-01-30T13:02:15;11.40;;;2.10;;
32734;SDS011;19112;51.076;3.706;2024-01-30T13:04:41;9.43;;;2.28;;
32734;SDS011;19112;51.076;3.706;2024-01-30T13:07:08;10.10;;;1.90;;
32734;SDS011;19112;51.076;3.706;2024-01-30T13:09:33;7.47;;;2.00;;
32734;SDS011;19112;51.076;3.706;2024-01-30T13:11:59;8.15;;;1.85;;
32734;SDS011;19112;51.076;3.706;2024-01-30T13:14:25;5.90;;;1.65;;
32734;SDS011;19112;51.076;3.706;2024-01-30T13:16:52;11.45;;;1.88;;
32734;SDS011;19112;51.076;3.706;2024-01-30T13:19:17;11.45;;;2.10;;
32734;SDS011;19112;51.076;3.706;2024-01-30T13:21:43;12.57;;;2.20;;
32734;SDS011;19112;51.076;3.706;2024-01-30T13:24:09;12.05;;;2.25;;
32734;SDS011;19112;51.076;3.706;2024-01-30T13:26:35;13.23;;;2.10;;
32734;SDS011;19112;51.076;3.706;2024-01-30T13:29:01;8.00;;;2.22;;
32734;SDS011;19112;51.076;3.706;2024-01-30T13:31:29;8.32;;;2.08;;
32734;SDS011;19112;51.076;3.706;2024-01-30T13:33:56;13.40;;;2.33;;
32734;SDS011;19112;51.076;3.706;2024-01-30T13:36:23;11.77;;;2.33;;
32734;SDS011;19112;51.076;3.706;2024-01-30T13:38:51;7.75;;;2.05;;
32734;SDS011;19112;51.076;3.706;2024-01-30T13:41:20;15.18;;;2.55;;
32734;SDS011;19112;51.076;3.706;2024-01-30T13:43:49;16.48;;;2.90;;
32734;SDS011;19112;51.076;3.706;2024-01-30T13:46:15;9.93;;;2.40;;
32734;SDS011;19112;51.076;3.706;2024-01-30T13:48:41;11.85;;;2.60;;
32734;SDS011;19112;51.076;3.706;2024-01-30T13:51:07;10.80;;;2.58;;
32734;SDS011;19112;51.076;3.706;2024-01-30T13:53:36;13.05;;;3.25;;
32734;SDS011;19112;51.076;3.706;2024-01-30T13:56:04;7.78;;;2.30;;
32734;SDS011;19112;51.076;3.706;2024-01-30T13:58:32;9.32;;;2.80;;
32734;SDS011;19112;51.076;3.706;2024-01-30T14:00:59;13.00;;;2.38;;
32734;SDS011;19112;51.076;3.706;2024-01-30T14:03:26;10.13;;;2.58;;
32734;SDS011;19112;51.076;3.706;2024-01-30T14:05:53;7.13;;;2.25;;
32734;SDS011;19112;51.076;3.706;2024-01-30T14:08:20;12.75;;;2.13;;
32734;SDS011;19112;51.076;3.706;2024-01-30T14:10:50;8.57;;;2.63;;
32734;SDS011;19112;51.076;3.706;2024-01-30T14:13:15;13.38;;;3.50;;
32734;SDS011;19112;51.076;3.706;2024-01-30T14:15:43;13.60;;;3.22;;
32734;SDS011;19112;51.076;3.706;2024-01-30T14:18:11;8.07;;;2.50;;
32734;SDS011;19112;51.076;3.706;2024-01-30T14:20:37;12.88;;;3.15;;
32734;SDS011;19112;51.076;3.706;2024-01-30T14:23:02;8.27;;;2.78;;
32734;SDS011;19112;51.076;3.706;2024-01-30T14:25:29;10.60;;;3.10;;
32734;SDS011;19112;51.076;3.706;2024-01-30T14:27:55;12.75;;;3.42;;
32734;SDS011;19112;51.076;3.706;2024-01-30T14:30:22;11.38;;;2.92;;
32734;SDS011;19112;51.076;3.706;2024-01-30T14:32:50;10.32;;;3.30;;
32734;SDS011;19112;51.076;3.706;2024-01-30T14:35:20;12.13;;;3.20;;
32734;SDS011;19112;51.076;3.706;2024-01-30T14:37:46;10.48;;;3.08;;
32734;SDS011;19112;51.076;3.706;2024-01-30T14:40:12;9.07;;;3.35;;
32734;SDS011;19112;51.076;3.706;2024-01-30T14:42:38;11.77;;;3.47;;
32734;SDS011;19112;51.076;3.706;2024-01-30T14:45:05;15.05;;;3.03;;
32734;SDS011;19112;51.076;3.706;2024-01-30T14:47:32;14.77;;;3.25;;